Rankin Inlet Airport
CYRT : now visible

Airfield :











YOU CAN JOIN US ON...

 
LOGIN :

Register | Disclaimer

   EN    FR    IT 

 









Legend :    VFR   Marginal VFR   IFR   Intensive IFR   Very Intensive IFR
Visi :
Ceiling :
>= 8 km
>= 3000ft
5 to 8 km
1000 to 3000 ft
1500m to 5 km
500 to 1000 ft
800 to 1500m
200 to 500 ft
< 800m
< 200 ft
Symbols :   Thunderstorms  Fog  Heavy snow  Heavy precipitations  Wind > 20 kt






- Airport Elevation : 94 ft
- IATA code : YRT


CYRT - Rankin Inlet

CURRENT METAR :
  • 270500Z 17006KT 10SM IC BKN005 M26/M29 A3028 RMK SF5 SLP262

EXPIRED METARs :
  • 270400Z 15005KT 130V200 5SM IC BKN005 M25/M29 A3030 RMK SF5 SLP267
  • 270353Z 17004KT 3SM IC BKN005 M25/M29 A3030 RMK SF7 SLP268
  • 270300Z 17006KT 15SM IC SKC M26/M30 A3031 RMK SLP271

TAF TAF CYRT
Valid from the 27 at 06:00 until the 27 at 18:00 UTC


270538Z 2706/2718 18010KT 2SM IC BR BKN005
TEMPO 2706/2715 P6SM NSW SCT005
FM271500 18015KT P6SM BKN030
TEMPO 2715/2718 5SM -SN RMK NXT FCST BY 271200Z



MET'MAP, your aeronautical weather chart ! - Copyright ORBIFLY December 2007 - Disclaimer

ORBIFLY MET'MAP TEAM :

Programming & Development : Alexandra Zaïnal
Concept & original design : Baudouin d'Aumeries
Assistance for programming : Marc-Olivier Méhu
Technical & hardware support : Manuel Goepfert

Contact : metmap@orbifly.com




SOURCES & CREDITS :

   NOAA       Earth
Advisory